Time;durP1;ratioP1;P1;durP2;ratioP2;P2;SDS_P1;SDS_P2;PMS_P1;PMS_P2;Temp;Humidity;BMP_temperature;BMP_pressure;BME280_temperature;BME280_humidity;BME280_pressure;Samples;Min_cycle;Max_cycle;Signal;HPM_P1;HPM_P2
2022/03/26 00:01:14;;;;;;;0.50;0.50;;;;;;;;;;1847775;76;26276;-47
2022/03/26 00:03:41;;;;;;;1.35;0.45;;;;;;;;;;1860865;76;26374;-46
2022/03/26 00:06:11;;;;;;;0.70;0.50;;;;;;;;;;1880516;71;51313;-85
2022/03/26 00:08:38;;;;;;;0.40;0.40;;;;;;;;;;1921343;75;26424;-84
2022/03/26 00:11:05;;;;;;;0.45;0.45;;;;;;;;;;1868589;72;51890;-66
2022/03/26 00:13:33;;;;;;;0.30;0.30;;;;;;;;;;1835612;77;26241;-63
2022/03/26 00:16:01;;;;;;;0.40;0.35;;;;;;;;;;1837335;77;26228;-66
2022/03/26 00:18:29;;;;;;;0.40;0.40;;;;;;;;;;1829823;77;26267;-67
2022/03/26 00:20:56;;;;;;;0.50;0.30;;;;;;;;;;1817151;77;26298;-61
2022/03/26 00:23:23;;;;;;;0.65;0.40;;;;;;;;;;1847750;77;26280;-58
2022/03/26 00:25:50;;;;;;;1.00;0.42;;;;;;;;;;1829770;77;26486;-58
2022/03/26 00:28:18;;;;;;;0.68;0.50;;;;;;;;;;1836074;77;26248;-60
2022/03/26 00:30:45;;;;;;;3.40;0.40;;;;;;;;;;1836441;77;26201;-65
2022/03/26 00:33:12;;;;;;;0.30;0.30;;;;;;;;;;1836570;77;26197;-60
2022/03/26 00:35:39;;;;;;;0.80;0.30;;;;;;;;;;1833528;77;26270;-66
2022/03/26 00:38:07;;;;;;;1.17;0.40;;;;;;;;;;1830391;77;26192;-61
2022/03/26 00:40:34;;;;;;;0.23;0.23;;;;;;;;;;1834243;77;26216;-61
2022/03/26 00:43:01;;;;;;;0.23;0.23;;;;;;;;;;1833729;77;26291;-63
2022/03/26 00:45:29;;;;;;;0.20;0.20;;;;;;;;;;1845831;77;26265;-61
2022/03/26 00:47:57;;;;;;;0.20;0.20;;;;;;;;;;1832418;77;26778;-59
2022/03/26 00:50:24;;;;;;;0.35;0.35;;;;;;;;;;1832262;77;26258;-62
2022/03/26 00:52:52;;;;;;;1.55;0.60;;;;;;;;;;1822992;77;26229;-65
2022/03/26 00:55:19;;;;;;;0.30;0.30;;;;;;;;;;1836178;77;26739;-60
2022/03/26 00:57:46;;;;;;;0.10;0.10;;;;;;;;;;1816305;77;26216;-63
2022/03/26 01:00:14;;;;;;;0.30;0.30;;;;;;;;;;1835902;77;26216;-61
2022/03/26 01:02:42;;;;;;;0.20;0.20;;;;;;;;;;1831711;77;26267;-65
2022/03/26 01:05:10;;;;;;;0.35;0.35;;;;;;;;;;1823339;77;26266;-61
2022/03/26 01:07:38;;;;;;;0.30;0.30;;;;;;;;;;1816802;77;26243;-65
2022/03/26 01:10:10;;;;;;;0.23;0.20;;;;;;;;;;1830844;77;26299;-63
2022/03/26 01:12:34;;;;;;;0.20;0.20;;;;;;;;;;1844913;76;26343;-61
2022/03/26 01:15:02;;;;;;;0.23;0.20;;;;;;;;;;1837979;76;26259;-61
2022/03/26 01:17:30;;;;;;;1.17;0.13;;;;;;;;;;1845344;76;26287;-60
2022/03/26 01:19:59;;;;;;;0.30;0.30;;;;;;;;;;1846566;76;26252;-61
2022/03/26 01:22:27;;;;;;;0.25;0.23;;;;;;;;;;1849321;76;26265;-59
2022/03/26 01:24:54;;;;;;;1.17;0.30;;;;;;;;;;1850202;76;26208;-62
2022/03/26 01:27:22;;;;;;;0.30;0.30;;;;;;;;;;1850639;76;26340;-58
2022/03/26 01:29:49;;;;;;;0.20;0.20;;;;;;;;;;1850340;76;26434;-62
2022/03/26 01:32:16;;;;;;;0.13;0.13;;;;;;;;;;1850472;76;26797;-58
2022/03/26 01:34:44;;;;;;;0.28;0.28;;;;;;;;;;1850504;76;26276;-62
2022/03/26 01:37:12;;;;;;;0.30;0.28;;;;;;;;;;1847806;76;26224;-66
2022/03/26 01:39:39;;;;;;;0.53;0.30;;;;;;;;;;1850669;76;26337;-61
2022/03/26 01:42:07;;;;;;;0.20;0.20;;;;;;;;;;1850272;76;26223;-62
2022/03/26 01:44:35;;;;;;;0.10;0.10;;;;;;;;;;1857691;76;26750;-63
2022/03/26 01:47:03;;;;;;;0.23;0.23;;;;;;;;;;1849995;76;26254;-60
2022/03/26 01:49:31;;;;;;;0.20;0.20;;;;;;;;;;1850687;76;26231;-60
2022/03/26 01:51:59;;;;;;;0.13;0.13;;;;;;;;;;1849326;76;26731;-60
2022/03/26 01:54:27;;;;;;;0.28;0.28;;;;;;;;;;1850724;76;26208;-61
2022/03/26 01:56:55;;;;;;;0.20;0.20;;;;;;;;;;1850381;76;26691;-63
2022/03/26 01:59:26;;;;;;;0.23;0.23;;;;;;;;;;1850115;76;26314;-60
2022/03/26 02:01:54;;;;;;;0.30;0.30;;;;;;;;;;1847775;76;26378;-67
2022/03/26 02:04:21;;;;;;;0.75;0.20;;;;;;;;;;1848624;76;26802;-63
2022/03/26 02:06:49;;;;;;;0.20;0.20;;;;;;;;;;1850588;76;26825;-62
2022/03/26 02:09:16;;;;;;;0.95;0.42;;;;;;;;;;1849854;76;26365;-60
2022/03/26 02:11:45;;;;;;;0.20;0.20;;;;;;;;;;1843997;76;26776;-66
2022/03/26 02:14:13;;;;;;;0.25;0.25;;;;;;;;;;1841108;76;26220;-62
2022/03/26 02:16:41;;;;;;;0.20;0.20;;;;;;;;;;1846088;76;26273;-63
2022/03/26 02:19:09;;;;;;;0.20;0.20;;;;;;;;;;1829136;76;26271;-57
2022/03/26 02:21:37;;;;;;;0.20;0.20;;;;;;;;;;1840518;76;26223;-63
2022/03/26 02:24:06;;;;;;;0.17;0.17;;;;;;;;;;1840981;77;26287;-60
2022/03/26 02:26:33;;;;;;;0.10;0.10;;;;;;;;;;1841581;76;26615;-60
2022/03/26 02:29:10;;;;;;;0.23;0.23;;;;;;;;;;1839884;76;26325;-65
2022/03/26 02:31:38;;;;;;;0.20;0.20;;;;;;;;;;1859113;76;26252;-63
2022/03/26 02:34:07;;;;;;;0.85;0.33;;;;;;;;;;1822331;76;27401;-60
2022/03/26 02:36:34;;;;;;;0.30;0.30;;;;;;;;;;1840887;76;26744;-66
2022/03/26 02:39:03;;;;;;;0.20;0.20;;;;;;;;;;1840255;76;26298;-63
2022/03/26 02:41:31;;;;;;;0.25;0.25;;;;;;;;;;1841765;76;26216;-62
2022/03/26 02:43:58;;;;;;;0.28;0.28;;;;;;;;;;1833463;76;26289;-63
2022/03/26 02:46:26;;;;;;;0.20;0.20;;;;;;;;;;1837220;76;26306;-61
2022/03/26 02:48:53;;;;;;;0.30;0.30;;;;;;;;;;1840676;76;26199;-61
2022/03/26 02:51:20;;;;;;;0.20;0.20;;;;;;;;;;1841329;76;26180;-57
2022/03/26 02:53:48;;;;;;;0.17;0.17;;;;;;;;;;1831654;76;27278;-66
2022/03/26 02:56:35;;;;;;;0.20;0.20;;;;;;;;;;1836534;76;26232;-67
2022/03/26 02:59:02;;;;;;;0.30;0.30;;;;;;;;;;1801151;77;26304;-62
2022/03/26 03:01:29;;;;;;;0.30;0.30;;;;;;;;;;1820546;77;26289;-59
2022/03/26 03:03:56;;;;;;;0.30;0.30;;;;;;;;;;1824024;77;26422;-61
2022/03/26 03:06:25;;;;;;;0.30;0.30;;;;;;;;;;1820477;79;26842;-58
2022/03/26 03:08:53;;;;;;;0.23;0.23;;;;;;;;;;1792313;77;26764;-62
2022/03/26 03:11:20;;;;;;;0.20;0.20;;;;;;;;;;1799472;77;26324;-65
2022/03/26 03:13:47;;;;;;;0.25;0.25;;;;;;;;;;1808504;77;26292;-63
2022/03/26 03:16:15;;;;;;;0.30;0.30;;;;;;;;;;1814216;77;26399;-60
2022/03/26 03:18:43;;;;;;;0.30;0.28;;;;;;;;;;1807811;77;26282;-63
2022/03/26 03:21:10;;;;;;;0.30;0.30;;;;;;;;;;1807197;77;26367;-60
2022/03/26 03:23:37;;;;;;;0.20;0.20;;;;;;;;;;1798542;77;26376;-63
2022/03/26 03:26:05;;;;;;;0.30;0.30;;;;;;;;;;1811422;77;26270;-61
2022/03/26 03:28:33;;;;;;;0.45;0.30;;;;;;;;;;1814477;77;26298;-66
2022/03/26 03:31:00;;;;;;;0.23;0.20;;;;;;;;;;1790925;77;26748;-61
2022/03/26 03:33:28;;;;;;;0.25;0.25;;;;;;;;;;1810974;77;26355;-63
2022/03/26 03:35:56;;;;;;;0.30;0.30;;;;;;;;;;1810079;77;26312;-60
2022/03/26 03:38:25;;;;;;;1.55;0.30;;;;;;;;;;1803135;77;26269;-61
2022/03/26 03:40:52;;;;;;;0.40;0.40;;;;;;;;;;1801626;77;26374;-62
2022/03/26 03:43:19;;;;;;;0.30;0.30;;;;;;;;;;1802506;77;26354;-60
2022/03/26 03:45:47;;;;;;;0.20;0.20;;;;;;;;;;1808622;77;26283;-61
2022/03/26 03:48:14;;;;;;;0.28;0.28;;;;;;;;;;1812430;77;26261;-61
2022/03/26 03:50:42;;;;;;;0.30;0.30;;;;;;;;;;1805164;77;26278;-60
2022/03/26 03:53:09;;;;;;;0.20;0.20;;;;;;;;;;1809947;77;26280;-62
2022/03/26 03:55:36;;;;;;;0.10;0.10;;;;;;;;;;1819982;77;26270;-63
2022/03/26 03:58:04;;;;;;;0.30;0.30;;;;;;;;;;1815662;77;26313;-62
2022/03/26 04:00:31;;;;;;;0.35;0.33;;;;;;;;;;1809293;78;26293;-63
2022/03/26 04:03:00;;;;;;;0.30;0.30;;;;;;;;;;1800732;77;26299;-67
2022/03/26 04:05:27;;;;;;;0.30;0.30;;;;;;;;;;1805893;77;26763;-61
2022/03/26 04:07:54;;;;;;;0.25;0.25;;;;;;;;;;1822921;77;26328;-64
2022/03/26 04:10:22;;;;;;;0.30;0.30;;;;;;;;;;1821104;77;26446;-62
2022/03/26 04:12:49;;;;;;;0.20;0.20;;;;;;;;;;1807672;77;26367;-63
2022/03/26 04:15:16;;;;;;;0.45;0.40;;;;;;;;;;1814667;77;26297;-66
2022/03/26 04:17:44;;;;;;;0.40;0.40;;;;;;;;;;1802504;77;26800;-68
2022/03/26 04:20:11;;;;;;;0.20;0.20;;;;;;;;;;1823789;77;26826;-66
2022/03/26 04:22:39;;;;;;;0.40;0.40;;;;;;;;;;1819408;77;26271;-65
2022/03/26 04:25:07;;;;;;;0.30;0.30;;;;;;;;;;1793597;78;26875;-64
2022/03/26 04:27:35;;;;;;;0.47;0.47;;;;;;;;;;1814165;77;26657;-66
2022/03/26 04:30:02;;;;;;;0.45;0.30;;;;;;;;;;1803554;77;26277;-60
2022/03/26 04:32:30;;;;;;;0.30;0.30;;;;;;;;;;1817994;77;26796;-62
2022/03/26 04:34:58;;;;;;;0.40;0.40;;;;;;;;;;1798472;77;26292;-65
2022/03/26 04:37:25;;;;;;;0.23;0.23;;;;;;;;;;1822381;77;26748;-61
2022/03/26 04:39:52;;;;;;;0.30;0.30;;;;;;;;;;1806220;77;26292;-63
2022/03/26 04:42:20;;;;;;;1.02;0.30;;;;;;;;;;1803100;77;26454;-63
2022/03/26 04:44:47;;;;;;;0.30;0.30;;;;;;;;;;1814829;77;26343;-60
2022/03/26 04:47:14;;;;;;;0.20;0.20;;;;;;;;;;1805360;77;26285;-61
2022/03/26 04:49:42;;;;;;;0.40;0.40;;;;;;;;;;1816555;77;26802;-65
2022/03/26 04:52:09;;;;;;;0.35;0.20;;;;;;;;;;1817159;77;26299;-61
2022/03/26 04:54:38;;;;;;;0.20;0.20;;;;;;;;;;1811344;77;27344;-61
2022/03/26 04:57:05;;;;;;;0.20;0.20;;;;;;;;;;1812286;77;26738;-62
2022/03/26 04:59:33;;;;;;;0.13;0.13;;;;;;;;;;1812560;77;26384;-61
2022/03/26 05:02:00;;;;;;;0.30;0.30;;;;;;;;;;1810747;79;26275;-63
2022/03/26 05:04:27;;;;;;;0.28;0.23;;;;;;;;;;1803536;78;26286;-65
2022/03/26 05:06:54;;;;;;;0.30;0.30;;;;;;;;;;1805608;77;26769;-63
2022/03/26 05:09:22;;;;;;;0.35;0.35;;;;;;;;;;1807725;78;26320;-68
2022/03/26 05:11:49;;;;;;;0.30;0.30;;;;;;;;;;1799902;77;26313;-67
2022/03/26 05:14:17;;;;;;;0.23;0.23;;;;;;;;;;1813668;77;26290;-64
2022/03/26 05:16:44;;;;;;;0.40;0.40;;;;;;;;;;1806810;79;26318;-60
2022/03/26 05:19:11;;;;;;;1.05;0.50;;;;;;;;;;1810700;77;26289;-63
2022/03/26 05:21:39;;;;;;;0.25;0.25;;;;;;;;;;1804540;77;26274;-63
2022/03/26 05:24:06;;;;;;;0.62;0.47;;;;;;;;;;1809608;77;26356;-60
2022/03/26 05:26:33;;;;;;;0.20;0.20;;;;;;;;;;1809899;77;26698;-60
2022/03/26 05:29:01;;;;;;;0.30;0.30;;;;;;;;;;1809402;77;26321;-63
2022/03/26 05:31:28;;;;;;;0.30;0.30;;;;;;;;;;1810579;77;26273;-65
2022/03/26 05:33:55;;;;;;;0.50;0.50;;;;;;;;;;1801075;79;26876;-62
2022/03/26 05:36:23;;;;;;;0.30;0.30;;;;;;;;;;1810992;77;26713;-63
2022/03/26 05:38:50;;;;;;;0.37;0.37;;;;;;;;;;1799723;77;26286;-60
2022/03/26 05:41:18;;;;;;;0.20;0.20;;;;;;;;;;1797902;77;26827;-61
2022/03/26 05:43:47;;;;;;;0.10;0.10;;;;;;;;;;1807295;78;26351;-63
2022/03/26 05:46:15;;;;;;;1.20;0.33;;;;;;;;;;1800515;79;27024;-61
2022/03/26 05:48:42;;;;;;;0.20;0.20;;;;;;;;;;1812202;79;26243;-58
2022/03/26 05:51:10;;;;;;;0.20;0.20;;;;;;;;;;1806366;79;26401;-61
2022/03/26 05:53:37;;;;;;;0.20;0.20;;;;;;;;;;1812710;77;26278;-64
2022/03/26 05:56:05;;;;;;;0.20;0.20;;;;;;;;;;1800404;77;26496;-68
2022/03/26 05:58:32;;;;;;;1.55;0.20;;;;;;;;;;1800370;78;26426;-57
2022/03/26 06:00:59;;;;;;;0.57;0.28;;;;;;;;;;1807965;77;26855;-63
2022/03/26 06:03:26;;;;;;;0.90;0.30;;;;;;;;;;1806027;78;27036;-62
2022/03/26 06:05:54;;;;;;;0.50;0.40;;;;;;;;;;1816956;77;26349;-61
2022/03/26 06:08:21;;;;;;;0.98;0.20;;;;;;;;;;1815071;77;26289;-68
2022/03/26 06:10:48;;;;;;;0.45;0.20;;;;;;;;;;1817635;77;26329;-65
2022/03/26 06:13:15;;;;;;;0.20;0.20;;;;;;;;;;1813088;78;26401;-66
2022/03/26 06:15:43;;;;;;;0.20;0.20;;;;;;;;;;1807109;77;26360;-66
2022/03/26 06:18:11;;;;;;;4.10;0.47;;;;;;;;;;1812724;77;26299;-61
2022/03/26 06:23:28;;;;;;;3.83;0.45;;;;;;;;;;1813593;77;26771;-61
2022/03/26 06:25:55;;;;;;;2.15;0.60;;;;;;;;;;1813603;78;26269;-66
2022/03/26 06:28:22;;;;;;;6.97;0.75;;;;;;;;;;1814801;78;26319;-60
2022/03/26 06:30:51;;;;;;;1.80;0.68;;;;;;;;;;1815543;77;26260;-62
2022/03/26 06:33:19;;;;;;;1.52;0.80;;;;;;;;;;1811700;78;26301;-60
2022/03/26 06:35:46;;;;;;;5.58;0.80;;;;;;;;;;1781358;79;26853;-63
2022/03/26 06:38:14;;;;;;;7.28;0.90;;;;;;;;;;1773139;80;26317;-61
2022/03/26 06:40:41;;;;;;;7.10;0.85;;;;;;;;;;1780513;79;26866;-63
2022/03/26 06:43:09;;;;;;;4.03;0.95;;;;;;;;;;1817432;79;26767;-60
2022/03/26 06:45:37;;;;;;;3.30;0.80;;;;;;;;;;1817029;79;26231;-62
2022/03/26 06:48:05;;;;;;;6.72;0.95;;;;;;;;;;1816807;79;27473;-61
2022/03/26 06:50:32;;;;;;;2.37;0.40;;;;;;;;;;1817601;79;26289;-64
2022/03/26 06:52:59;;;;;;;3.17;0.78;;;;;;;;;;1781596;80;26328;-67
2022/03/26 06:55:27;;;;;;;6.62;0.80;;;;;;;;;;1778467;80;26316;-68
2022/03/26 06:57:54;;;;;;;3.37;0.60;;;;;;;;;;1780870;80;26951;-65
2022/03/26 07:00:22;;;;;;;5.33;1.05;;;;;;;;;;1783467;79;26258;-61
2022/03/26 07:02:49;;;;;;;3.70;1.05;;;;;;;;;;1782650;79;26352;-64
2022/03/26 07:05:16;;;;;;;4.87;0.70;;;;;;;;;;1758562;80;26300;-63
2022/03/26 07:07:43;;;;;;;5.72;0.60;;;;;;;;;;1782415;80;26312;-61
2022/03/26 07:10:11;;;;;;;2.60;0.65;;;;;;;;;;1777958;80;26289;-60
2022/03/26 07:12:39;;;;;;;4.97;0.95;;;;;;;;;;1754723;80;26725;-61
2022/03/26 07:15:07;;;;;;;3.85;0.90;;;;;;;;;;1788362;79;26275;-62
2022/03/26 07:17:36;;;;;;;4.45;0.70;;;;;;;;;;1786301;79;26380;-65
2022/03/26 07:20:04;;;;;;;5.33;1.40;;;;;;;;;;1787675;79;26285;-63
2022/03/26 07:22:32;;;;;;;3.27;0.60;;;;;;;;;;1787858;79;27593;-62
2022/03/26 07:24:59;;;;;;;2.47;0.50;;;;;;;;;;1787500;79;26732;-61
2022/03/26 07:27:28;;;;;;;4.90;0.70;;;;;;;;;;1785537;79;26348;-62
2022/03/26 07:29:55;;;;;;;5.75;0.88;;;;;;;;;;1726581;81;26377;-65
2022/03/26 07:32:23;;;;;;;2.83;0.60;;;;;;;;;;1754698;80;26659;-65
2022/03/26 07:34:50;;;;;;;2.30;0.98;;;;;;;;;;1781197;79;26328;-66
2022/03/26 07:37:17;;;;;;;3.95;1.32;;;;;;;;;;1786134;78;26333;-66
2022/03/26 07:39:44;;;;;;;2.67;0.88;;;;;;;;;;1786643;79;26282;-67
2022/03/26 07:42:12;;;;;;;3.10;0.60;;;;;;;;;;1787259;79;26733;-63
2022/03/26 07:44:39;;;;;;;5.20;0.72;;;;;;;;;;1788242;79;26837;-62
2022/03/26 07:47:07;;;;;;;4.08;0.68;;;;;;;;;;1788324;79;26785;-61
2022/03/26 07:49:34;;;;;;;2.80;0.50;;;;;;;;;;1802378;78;26312;-61
2022/03/26 07:52:01;;;;;;;1.25;0.40;;;;;;;;;;1806670;79;26283;-65
2022/03/26 07:54:28;;;;;;;2.30;0.72;;;;;;;;;;1784959;79;26266;-65
2022/03/26 07:56:56;;;;;;;1.52;0.35;;;;;;;;;;1785917;79;26696;-68
2022/03/26 07:59:23;;;;;;;1.70;0.50;;;;;;;;;;1785209;79;26396;-61
2022/03/26 08:01:51;;;;;;;7.17;0.53;;;;;;;;;;1784686;79;26828;-63
2022/03/26 08:04:18;;;;;;;3.65;0.70;;;;;;;;;;1786652;79;26768;-60
2022/03/26 08:06:45;;;;;;;2.25;0.50;;;;;;;;;;1786728;79;26297;-58
2022/03/26 08:09:12;;;;;;;0.85;0.33;;;;;;;;;;1779967;79;26350;-63
2022/03/26 08:11:40;;;;;;;0.33;0.25;;;;;;;;;;1785851;79;26262;-63
2022/03/26 08:14:07;;;;;;;0.42;0.42;;;;;;;;;;1776922;79;26327;-57
2022/03/26 08:16:35;;;;;;;1.25;0.37;;;;;;;;;;1786884;79;26309;-63
2022/03/26 08:19:02;;;;;;;1.65;0.50;;;;;;;;;;1790229;79;26977;-65
2022/03/26 08:21:32;;;;;;;1.27;0.35;;;;;;;;;;1785908;79;26351;-62
2022/03/26 08:23:59;;;;;;;1.27;0.47;;;;;;;;;;1777968;79;26429;-64
2022/03/26 08:26:32;;;;;;;3.92;0.30;;;;;;;;;;1797845;79;26315;-62
2022/03/26 08:29:01;;;;;;;0.35;0.30;;;;;;;;;;1787637;78;26274;-63
2022/03/26 08:31:29;;;;;;;0.30;0.30;;;;;;;;;;1789302;79;26270;-63
2022/03/26 08:33:57;;;;;;;1.65;0.55;;;;;;;;;;1791341;78;26302;-62
2022/03/26 08:36:24;;;;;;;0.30;0.30;;;;;;;;;;1783046;79;26367;-55
2022/03/26 08:38:52;;;;;;;2.25;0.40;;;;;;;;;;1782380;79;26357;-67
2022/03/26 08:41:20;;;;;;;1.12;0.28;;;;;;;;;;1788353;79;26274;-61
2022/03/26 08:43:51;;;;;;;0.40;0.40;;;;;;;;;;1798204;79;26835;-63
2022/03/26 08:46:20;;;;;;;1.30;0.40;;;;;;;;;;1772437;79;26366;-63
2022/03/26 08:48:49;;;;;;;0.70;0.30;;;;;;;;;;1787577;78;26287;-64
2022/03/26 08:51:16;;;;;;;1.55;0.30;;;;;;;;;;1786955;79;26246;-62
2022/03/26 08:53:44;;;;;;;4.28;0.42;;;;;;;;;;1787299;79;26285;-62
2022/03/26 08:56:12;;;;;;;1.25;0.37;;;;;;;;;;1787157;78;26282;-62
2022/03/26 08:58:39;;;;;;;0.20;0.20;;;;;;;;;;1787272;78;26804;-60
2022/03/26 09:01:11;;;;;;;0.20;0.20;;;;;;;;;;1785990;79;25443;-60
2022/03/26 09:03:40;;;;;;;0.40;0.40;;;;;;;;;;1786142;79;26736;-63
2022/03/26 09:06:08;;;;;;;0.40;0.40;;;;;;;;;;1785945;79;26339;-62
2022/03/26 09:08:35;;;;;;;1.42;0.33;;;;;;;;;;1795182;79;26256;-63
2022/03/26 09:11:04;;;;;;;0.68;0.30;;;;;;;;;;1789926;78;26396;-67
2022/03/26 09:13:32;;;;;;;0.20;0.20;;;;;;;;;;1788700;79;26293;-60
2022/03/26 09:15:59;;;;;;;0.80;0.20;;;;;;;;;;1789908;79;26804;-62
2022/03/26 09:18:28;;;;;;;1.95;0.42;;;;;;;;;;1790226;79;26298;-61
2022/03/26 09:20:56;;;;;;;2.10;0.25;;;;;;;;;;1782698;79;26368;-63
2022/03/26 09:23:24;;;;;;;0.20;0.20;;;;;;;;;;1788536;79;26594;-59
2022/03/26 09:25:51;;;;;;;1.20;0.15;;;;;;;;;;1786640;79;26273;-57
2022/03/26 09:28:19;;;;;;;0.30;0.30;;;;;;;;;;1788257;79;26289;-65
2022/03/26 09:30:46;;;;;;;0.68;0.35;;;;;;;;;;1788197;78;26844;-60
2022/03/26 09:33:13;;;;;;;0.40;0.40;;;;;;;;;;1789629;79;27198;-62
2022/03/26 09:35:40;;;;;;;0.25;0.17;;;;;;;;;;1788710;79;26332;-67
2022/03/26 09:38:08;;;;;;;0.13;0.13;;;;;;;;;;1783499;79;26884;-57
2022/03/26 09:40:35;;;;;;;0.20;0.20;;;;;;;;;;1789796;79;26860;-66
2022/03/26 09:43:03;;;;;;;0.20;0.20;;;;;;;;;;1785115;79;26341;-64
2022/03/26 09:45:30;;;;;;;0.20;0.20;;;;;;;;;;1790393;79;26286;-61
2022/03/26 09:47:57;;;;;;;0.10;0.10;;;;;;;;;;1789172;79;26203;-61
2022/03/26 09:50:24;;;;;;;0.20;0.20;;;;;;;;;;1784317;79;26965;-59
2022/03/26 09:52:52;;;;;;;0.20;0.20;;;;;;;;;;1786940;79;26278;-60
2022/03/26 09:55:21;;;;;;;0.20;0.20;;;;;;;;;;1788074;79;26269;-61
2022/03/26 09:57:49;;;;;;;2.40;0.20;;;;;;;;;;1807402;79;26313;-60
2022/03/26 10:00:17;;;;;;;0.15;0.15;;;;;;;;;;1788456;79;26370;-62
2022/03/26 10:02:44;;;;;;;0.20;0.20;;;;;;;;;;1793508;79;26337;-62
2022/03/26 10:05:12;;;;;;;0.20;0.10;;;;;;;;;;1798871;78;26408;-63
2022/03/26 10:07:40;;;;;;;0.30;0.30;;;;;;;;;;1782382;79;26962;-65
2022/03/26 10:10:08;;;;;;;0.28;0.25;;;;;;;;;;1790477;79;26333;-60
2022/03/26 10:12:35;;;;;;;0.15;0.15;;;;;;;;;;1790376;79;26527;-61
2022/03/26 10:15:07;;;;;;;0.10;0.10;;;;;;;;;;1786167;79;26278;-66
2022/03/26 10:17:35;;;;;;;1.45;0.25;;;;;;;;;;1787765;79;26368;-62
2022/03/26 10:20:11;;;;;;;1.05;0.17;;;;;;;;;;1787591;79;26278;-62
2022/03/26 10:22:45;;;;;;;0.42;0.30;;;;;;;;;;1789814;79;26270;-63
2022/03/26 10:25:14;;;;;;;1.10;0.10;;;;;;;;;;1779747;79;26611;-61
2022/03/26 10:27:43;;;;;;;0.30;0.30;;;;;;;;;;1753353;80;26748;-65
2022/03/26 10:30:15;;;;;;;0.10;0.10;;;;;;;;;;1787779;79;26595;-63
2022/03/26 10:32:49;;;;;;;0.37;0.30;;;;;;;;;;1784799;79;26274;-60
2022/03/26 10:35:14;;;;;;;0.30;0.30;;;;;;;;;;1779779;79;26376;-64
2022/03/26 10:37:43;;;;;;;0.75;0.40;;;;;;;;;;1783683;79;26336;-63
2022/03/26 10:40:18;;;;;;;0.20;0.20;;;;;;;;;;1784765;79;26328;-62
2022/03/26 10:42:45;;;;;;;0.20;0.20;;;;;;;;;;1784168;79;26277;-61
2022/03/26 10:45:15;;;;;;;0.62;0.30;;;;;;;;;;1783548;79;26375;-60
2022/03/26 10:47:43;;;;;;;1.02;0.30;;;;;;;;;;1784076;79;27178;-65
2022/03/26 10:50:12;;;;;;;0.20;0.20;;;;;;;;;;1783862;79;26297;-59
2022/03/26 10:52:39;;;;;;;0.28;0.28;;;;;;;;;;1786209;79;26333;-64
2022/03/26 10:55:16;;;;;;;0.20;0.20;;;;;;;;;;1784983;79;26254;-63
2022/03/26 10:57:45;;;;;;;0.30;0.30;;;;;;;;;;1788323;79;26368;-66
2022/03/26 11:00:13;;;;;;;0.15;0.15;;;;;;;;;;1787298;79;26302;-62
2022/03/26 11:02:41;;;;;;;0.30;0.30;;;;;;;;;;1787774;79;26379;-61
2022/03/26 11:05:09;;;;;;;0.37;0.20;;;;;;;;;;1788466;79;26373;-61
2022/03/26 11:07:38;;;;;;;0.28;0.15;;;;;;;;;;1784643;79;26261;-62
2022/03/26 11:10:06;;;;;;;0.20;0.20;;;;;;;;;;1788368;79;26326;-66
2022/03/26 11:12:34;;;;;;;1.12;0.30;;;;;;;;;;1790881;79;26304;-60
2022/03/26 11:15:03;;;;;;;1.95;0.45;;;;;;;;;;1785309;79;26262;-64
2022/03/26 11:17:38;;;;;;;0.30;0.25;;;;;;;;;;1784235;79;26774;-65
2022/03/26 11:20:13;;;;;;;0.25;0.25;;;;;;;;;;1796216;79;26688;-59
2022/03/26 11:22:50;;;;;;;0.28;0.28;;;;;;;;;;1786358;79;26274;-63
2022/03/26 11:25:19;;;;;;;1.05;0.20;;;;;;;;;;1789306;79;26432;-62
2022/03/26 11:28:05;;;;;;;0.30;0.30;;;;;;;;;;1790407;79;26226;-62
2022/03/26 11:30:34;;;;;;;0.53;0.20;;;;;;;;;;1786652;78;26780;-59
2022/03/26 11:33:12;;;;;;;0.90;0.30;;;;;;;;;;1793895;79;26289;-63
2022/03/26 11:35:56;;;;;;;0.30;0.30;;;;;;;;;;1790587;78;26285;-68
2022/03/26 11:38:25;;;;;;;0.37;0.33;;;;;;;;;;1787234;79;26442;-61
2022/03/26 11:40:54;;;;;;;0.37;0.37;;;;;;;;;;1787837;78;26374;-64
2022/03/26 11:43:40;;;;;;;0.78;0.30;;;;;;;;;;1786656;79;26306;-60
2022/03/26 11:51:40;;;;;;;0.17;0.13;;;;;;;;;;1790409;79;26299;-63
2022/03/26 11:54:09;;;;;;;0.20;0.20;;;;;;;;;;1788209;79;26392;-61
2022/03/26 11:56:36;;;;;;;0.40;0.25;;;;;;;;;;1786805;79;26266;-62
2022/03/26 11:59:05;;;;;;;0.20;0.20;;;;;;;;;;1786865;79;26285;-65
2022/03/26 12:01:37;;;;;;;1.62;0.20;;;;;;;;;;1785760;78;26285;-62
2022/03/26 12:04:17;;;;;;;0.42;0.10;;;;;;;;;;1787382;78;26434;-65
2022/03/26 12:07:00;;;;;;;0.15;0.15;;;;;;;;;;1788054;79;26293;-61
2022/03/26 12:09:33;;;;;;;0.50;0.50;;;;;;;;;;1787024;78;26346;-61
2022/03/26 12:12:10;;;;;;;2.08;0.20;;;;;;;;;;1785428;78;26965;-63
2022/03/26 12:14:39;;;;;;;1.45;0.20;;;;;;;;;;1787170;79;26376;-63
2022/03/26 12:17:07;;;;;;;0.85;0.30;;;;;;;;;;1779833;79;26388;-62
2022/03/26 12:19:42;;;;;;;0.23;0.20;;;;;;;;;;1788197;79;26384;-63
2022/03/26 12:22:26;;;;;;;0.20;0.20;;;;;;;;;;1787682;78;26289;-64
2022/03/26 12:24:54;;;;;;;0.30;0.20;;;;;;;;;;1788420;79;26404;-68
2022/03/26 12:27:23;;;;;;;0.10;0.10;;;;;;;;;;1788768;79;26324;-61
2022/03/26 12:29:51;;;;;;;0.55;0.20;;;;;;;;;;1788596;78;26792;-62
2022/03/26 12:32:19;;;;;;;0.30;0.30;;;;;;;;;;1787049;78;26616;-56
2022/03/26 12:35:02;;;;;;;0.30;0.30;;;;;;;;;;1788003;79;26297;-63
2022/03/26 12:37:29;;;;;;;0.30;0.30;;;;;;;;;;1785572;78;26282;-62
2022/03/26 12:39:57;;;;;;;0.65;0.20;;;;;;;;;;1784762;79;26318;-68
2022/03/26 12:42:25;;;;;;;0.70;0.30;;;;;;;;;;1787536;79;26372;-60
2022/03/26 12:44:53;;;;;;;0.42;0.28;;;;;;;;;;1787226;79;26805;-63
2022/03/26 12:47:25;;;;;;;0.28;0.28;;;;;;;;;;1784570;79;26356;-58
2022/03/26 12:49:54;;;;;;;1.67;0.20;;;;;;;;;;1787876;78;26275;-65
2022/03/26 12:52:22;;;;;;;0.45;0.35;;;;;;;;;;1791599;78;26261;-61
2022/03/26 12:54:56;;;;;;;0.23;0.20;;;;;;;;;;1797821;78;26279;-63
2022/03/26 12:57:24;;;;;;;0.20;0.20;;;;;;;;;;1798638;79;26275;-68
2022/03/26 12:59:53;;;;;;;0.10;0.10;;;;;;;;;;1795129;78;26283;-58
2022/03/26 13:02:21;;;;;;;1.82;0.30;;;;;;;;;;1796431;77;26333;-67
2022/03/26 13:04:52;;;;;;;0.30;0.30;;;;;;;;;;1792056;79;26431;-63
2022/03/26 13:07:22;;;;;;;0.60;0.20;;;;;;;;;;1796259;79;26270;-64
2022/03/26 13:09:54;;;;;;;0.20;0.20;;;;;;;;;;1794890;78;27511;-65
2022/03/26 13:12:28;;;;;;;0.20;0.20;;;;;;;;;;1793592;78;26294;-62
2022/03/26 13:14:56;;;;;;;0.68;0.20;;;;;;;;;;1796378;79;26314;-61
2022/03/26 13:17:25;;;;;;;0.70;0.40;;;;;;;;;;1792696;79;25977;-58
2022/03/26 13:19:58;;;;;;;0.68;0.20;;;;;;;;;;1798042;79;26286;-60
2022/03/26 13:22:31;;;;;;;1.55;0.30;;;;;;;;;;1790193;79;26290;-62
2022/03/26 13:24:56;;;;;;;0.68;0.33;;;;;;;;;;1790599;79;26387;-64
2022/03/26 13:27:26;;;;;;;0.78;0.30;;;;;;;;;;1815496;78;26289;-60
2022/03/26 13:29:53;;;;;;;0.68;0.30;;;;;;;;;;1807642;78;26329;-59
2022/03/26 13:32:24;;;;;;;0.20;0.20;;;;;;;;;;1805741;78;26298;-58
2022/03/26 13:34:49;;;;;;;0.35;0.20;;;;;;;;;;1801861;78;26284;-61
2022/03/26 13:37:18;;;;;;;1.72;0.20;;;;;;;;;;1807932;78;26326;-58
2022/03/26 13:39:46;;;;;;;0.95;0.30;;;;;;;;;;1798962;78;26296;-67
2022/03/26 13:42:20;;;;;;;0.30;0.30;;;;;;;;;;1807590;78;26304;-63
2022/03/26 13:44:49;;;;;;;3.77;0.60;;;;;;;;;;1816594;78;26338;-60
2022/03/26 13:47:17;;;;;;;0.68;0.20;;;;;;;;;;1829223;78;26262;-61
2022/03/26 13:49:45;;;;;;;0.25;0.25;;;;;;;;;;1811842;77;26297;-58
2022/03/26 13:52:34;;;;;;;2.45;0.33;;;;;;;;;;1823196;78;26749;-61
2022/03/26 13:55:03;;;;;;;0.88;0.37;;;;;;;;;;1806093;78;26286;-64
2022/03/26 13:57:35;;;;;;;0.30;0.20;;;;;;;;;;1801925;78;26343;-64
2022/03/26 14:00:10;;;;;;;0.28;0.28;;;;;;;;;;1806691;78;26752;-65
2022/03/26 14:02:38;;;;;;;1.00;0.50;;;;;;;;;;1805805;78;26289;-63
2022/03/26 14:05:07;;;;;;;0.40;0.30;;;;;;;;;;1801521;78;26705;-65
2022/03/26 14:07:34;;;;;;;2.02;0.40;;;;;;;;;;1804134;78;26394;-67
2022/03/26 14:10:01;;;;;;;0.70;0.30;;;;;;;;;;1808816;78;26325;-63
2022/03/26 14:12:29;;;;;;;0.30;0.30;;;;;;;;;;1804090;78;26282;-62
2022/03/26 14:14:56;;;;;;;0.20;0.17;;;;;;;;;;1803415;78;26387;-65
2022/03/26 14:17:23;;;;;;;0.80;0.30;;;;;;;;;;1802091;78;26233;-58
2022/03/26 14:19:50;;;;;;;1.27;0.30;;;;;;;;;;1806104;78;26321;-62
2022/03/26 14:22:18;;;;;;;0.57;0.37;;;;;;;;;;1804437;78;26724;-65
2022/03/26 14:24:45;;;;;;;0.35;0.35;;;;;;;;;;1808234;78;26378;-66
2022/03/26 14:27:12;;;;;;;1.25;0.70;;;;;;;;;;1800390;78;26393;-61
2022/03/26 14:29:40;;;;;;;2.37;0.65;;;;;;;;;;1807746;78;26277;-65
2022/03/26 14:32:09;;;;;;;0.75;0.62;;;;;;;;;;1802307;78;26800;-68
2022/03/26 14:34:36;;;;;;;2.25;0.60;;;;;;;;;;1805298;78;26325;-67
2022/03/26 14:37:04;;;;;;;2.10;0.70;;;;;;;;;;1804170;78;26281;-65
2022/03/26 14:39:31;;;;;;;2.37;0.85;;;;;;;;;;1805624;78;26438;-64
2022/03/26 14:41:59;;;;;;;2.60;0.75;;;;;;;;;;1808863;78;26771;-58
2022/03/26 14:44:26;;;;;;;4.05;1.02;;;;;;;;;;1807830;78;26691;-61
2022/03/26 14:49:43;;;;;;;2.37;1.00;;;;;;;;;;1848082;76;26311;-64
2022/03/26 14:52:10;;;;;;;1.00;1.00;;;;;;;;;;1851886;76;26393;-65
2022/03/26 14:54:37;;;;;;;2.65;1.30;;;;;;;;;;1842284;76;26709;-63
2022/03/26 14:57:04;;;;;;;3.83;1.50;;;;;;;;;;1837597;76;26289;-68
2022/03/26 14:59:32;;;;;;;1.95;1.50;;;;;;;;;;1845988;76;26267;-59
2022/03/26 15:01:59;;;;;;;3.70;1.40;;;;;;;;;;1835483;76;26330;-59